sensor_id;sensor_type;location;lat;lon;timestamp;P1;durP1;ratioP1;P2;durP2;ratioP2
13090;SDS011;6611;52.604;13.438;2022-08-21T00:01:16;12.17;;;10.60;;
13090;SDS011;6611;52.604;13.438;2022-08-21T00:06:20;12.70;;;10.10;;
13090;SDS011;6611;52.604;13.438;2022-08-21T00:11:24;11.07;;;9.97;;
13090;SDS011;6611;52.604;13.438;2022-08-21T00:16:28;10.50;;;9.50;;
13090;SDS011;6611;52.604;13.438;2022-08-21T00:21:30;11.50;;;10.40;;
13090;SDS011;6611;52.604;13.438;2022-08-21T00:26:31;10.63;;;9.70;;
13090;SDS011;6611;52.604;13.438;2022-08-21T00:31:34;12.20;;;10.80;;
13090;SDS011;6611;52.604;13.438;2022-08-21T00:36:36;11.33;;;9.80;;
13090;SDS011;6611;52.604;13.438;2022-08-21T00:41:38;10.23;;;9.27;;
13090;SDS011;6611;52.604;13.438;2022-08-21T00:46:42;10.53;;;9.63;;
13090;SDS011;6611;52.604;13.438;2022-08-21T00:51:46;11.47;;;10.37;;
13090;SDS011;6611;52.604;13.438;2022-08-21T00:56:52;11.93;;;10.83;;
13090;SDS011;6611;52.604;13.438;2022-08-21T01:01:57;11.43;;;10.37;;
13090;SDS011;6611;52.604;13.438;2022-08-21T01:06:59;12.63;;;10.87;;
13090;SDS011;6611;52.604;13.438;2022-08-21T01:12:01;11.70;;;10.63;;
13090;SDS011;6611;52.604;13.438;2022-08-21T01:17:05;12.17;;;11.07;;
13090;SDS011;6611;52.604;13.438;2022-08-21T01:22:09;11.50;;;10.17;;
13090;SDS011;6611;52.604;13.438;2022-08-21T01:27:10;9.47;;;8.57;;
13090;SDS011;6611;52.604;13.438;2022-08-21T01:32:13;10.17;;;9.17;;
13090;SDS011;6611;52.604;13.438;2022-08-21T01:37:17;9.90;;;8.90;;
13090;SDS011;6611;52.604;13.438;2022-08-21T01:42:20;10.30;;;9.37;;
13090;SDS011;6611;52.604;13.438;2022-08-21T01:47:22;11.27;;;10.07;;
13090;SDS011;6611;52.604;13.438;2022-08-21T01:52:25;10.80;;;9.80;;
13090;SDS011;6611;52.604;13.438;2022-08-21T01:57:27;10.47;;;9.40;;
13090;SDS011;6611;52.604;13.438;2022-08-21T02:02:29;9.57;;;8.67;;
13090;SDS011;6611;52.604;13.438;2022-08-21T02:07:36;10.67;;;9.47;;
13090;SDS011;6611;52.604;13.438;2022-08-21T02:12:38;9.67;;;8.67;;
13090;SDS011;6611;52.604;13.438;2022-08-21T02:17:41;9.27;;;8.43;;
13090;SDS011;6611;52.604;13.438;2022-08-21T02:22:46;10.60;;;9.03;;
13090;SDS011;6611;52.604;13.438;2022-08-21T02:27:48;10.27;;;8.87;;
13090;SDS011;6611;52.604;13.438;2022-08-21T02:32:50;9.30;;;8.50;;
13090;SDS011;6611;52.604;13.438;2022-08-21T02:37:54;11.77;;;8.27;;
13090;SDS011;6611;52.604;13.438;2022-08-21T02:42:59;9.30;;;8.30;;
13090;SDS011;6611;52.604;13.438;2022-08-21T02:48:02;9.03;;;8.13;;
13090;SDS011;6611;52.604;13.438;2022-08-21T02:53:08;8.77;;;7.83;;
13090;SDS011;6611;52.604;13.438;2022-08-21T02:58:13;8.77;;;7.87;;
13090;SDS011;6611;52.604;13.438;2022-08-21T03:03:16;8.80;;;7.40;;
13090;SDS011;6611;52.604;13.438;2022-08-21T03:08:19;8.10;;;7.40;;
13090;SDS011;6611;52.604;13.438;2022-08-21T03:13:22;7.83;;;7.07;;
13090;SDS011;6611;52.604;13.438;2022-08-21T03:18:23;6.90;;;6.10;;
13090;SDS011;6611;52.604;13.438;2022-08-21T03:23:27;9.47;;;6.80;;
13090;SDS011;6611;52.604;13.438;2022-08-21T03:28:30;7.87;;;6.80;;
13090;SDS011;6611;52.604;13.438;2022-08-21T03:33:32;9.10;;;6.93;;
13090;SDS011;6611;52.604;13.438;2022-08-21T03:38:36;7.40;;;6.60;;
13090;SDS011;6611;52.604;13.438;2022-08-21T03:43:38;9.50;;;6.63;;
13090;SDS011;6611;52.604;13.438;2022-08-21T03:48:40;8.43;;;6.63;;
13090;SDS011;6611;52.604;13.438;2022-08-21T03:53:43;9.20;;;6.97;;
13090;SDS011;6611;52.604;13.438;2022-08-21T03:58:44;10.07;;;7.57;;
13090;SDS011;6611;52.604;13.438;2022-08-21T04:03:46;7.10;;;6.47;;
13090;SDS011;6611;52.604;13.438;2022-08-21T04:08:49;9.50;;;6.73;;
13090;SDS011;6611;52.604;13.438;2022-08-21T04:13:50;8.27;;;6.10;;
13090;SDS011;6611;52.604;13.438;2022-08-21T04:18:52;6.77;;;6.00;;
13090;SDS011;6611;52.604;13.438;2022-08-21T04:23:55;7.63;;;6.80;;
13090;SDS011;6611;52.604;13.438;2022-08-21T04:28:57;9.00;;;6.27;;
13090;SDS011;6611;52.604;13.438;2022-08-21T04:33:58;7.57;;;5.77;;
13090;SDS011;6611;52.604;13.438;2022-08-21T04:39:01;7.20;;;6.00;;
13090;SDS011;6611;52.604;13.438;2022-08-21T04:44:03;8.70;;;6.10;;
13090;SDS011;6611;52.604;13.438;2022-08-21T04:49:05;7.47;;;6.00;;
13090;SDS011;6611;52.604;13.438;2022-08-21T04:54:09;6.03;;;5.23;;
13090;SDS011;6611;52.604;13.438;2022-08-21T04:59:15;6.83;;;5.57;;
13090;SDS011;6611;52.604;13.438;2022-08-21T05:04:21;6.40;;;5.60;;
13090;SDS011;6611;52.604;13.438;2022-08-21T05:09:26;6.67;;;5.43;;
13090;SDS011;6611;52.604;13.438;2022-08-21T05:14:29;6.57;;;4.90;;
13090;SDS011;6611;52.604;13.438;2022-08-21T05:19:31;7.10;;;5.10;;
13090;SDS011;6611;52.604;13.438;2022-08-21T05:24:34;5.87;;;4.80;;
13090;SDS011;6611;52.604;13.438;2022-08-21T05:29:35;7.27;;;4.50;;
13090;SDS011;6611;52.604;13.438;2022-08-21T05:34:37;6.40;;;4.27;;
13090;SDS011;6611;52.604;13.438;2022-08-21T05:39:40;6.70;;;4.47;;
13090;SDS011;6611;52.604;13.438;2022-08-21T05:44:42;5.20;;;4.10;;
13090;SDS011;6611;52.604;13.438;2022-08-21T05:49:43;5.33;;;3.90;;
13090;SDS011;6611;52.604;13.438;2022-08-21T05:54:46;6.47;;;4.20;;
13090;SDS011;6611;52.604;13.438;2022-08-21T05:59:48;6.77;;;3.83;;
13090;SDS011;6611;52.604;13.438;2022-08-21T06:04:50;8.13;;;3.90;;
13090;SDS011;6611;52.604;13.438;2022-08-21T06:09:53;9.97;;;4.17;;
13090;SDS011;6611;52.604;13.438;2022-08-21T06:14:54;4.90;;;3.17;;
13090;SDS011;6611;52.604;13.438;2022-08-21T06:19:56;5.77;;;3.60;;
13090;SDS011;6611;52.604;13.438;2022-08-21T06:24:59;6.13;;;3.30;;
13090;SDS011;6611;52.604;13.438;2022-08-21T06:30:00;4.90;;;3.37;;
13090;SDS011;6611;52.604;13.438;2022-08-21T06:35:02;5.53;;;3.33;;
13090;SDS011;6611;52.604;13.438;2022-08-21T06:40:07;6.93;;;3.00;;
13090;SDS011;6611;52.604;13.438;2022-08-21T06:45:09;5.20;;;2.60;;
13090;SDS011;6611;52.604;13.438;2022-08-21T06:50:11;4.87;;;3.10;;
13090;SDS011;6611;52.604;13.438;2022-08-21T06:55:14;4.93;;;3.20;;
13090;SDS011;6611;52.604;13.438;2022-08-21T07:00:16;5.73;;;2.80;;
13090;SDS011;6611;52.604;13.438;2022-08-21T07:05:17;5.13;;;3.00;;
13090;SDS011;6611;52.604;13.438;2022-08-21T07:10:20;5.40;;;2.70;;
13090;SDS011;6611;52.604;13.438;2022-08-21T07:15:22;4.13;;;2.43;;
13090;SDS011;6611;52.604;13.438;2022-08-21T07:20:24;5.60;;;2.40;;
13090;SDS011;6611;52.604;13.438;2022-08-21T07:25:27;9.47;;;2.50;;
13090;SDS011;6611;52.604;13.438;2022-08-21T07:30:29;3.50;;;2.20;;
13090;SDS011;6611;52.604;13.438;2022-08-21T07:35:30;6.50;;;2.43;;
13090;SDS011;6611;52.604;13.438;2022-08-21T07:40:34;4.37;;;2.30;;
13090;SDS011;6611;52.604;13.438;2022-08-21T07:45:36;4.03;;;1.70;;
13090;SDS011;6611;52.604;13.438;2022-08-21T07:50:38;4.90;;;2.13;;
13090;SDS011;6611;52.604;13.438;2022-08-21T07:55:42;4.67;;;2.10;;
13090;SDS011;6611;52.604;13.438;2022-08-21T08:00:43;5.40;;;1.80;;
13090;SDS011;6611;52.604;13.438;2022-08-21T08:05:45;4.43;;;1.80;;
13090;SDS011;6611;52.604;13.438;2022-08-21T08:10:48;4.43;;;1.80;;
13090;SDS011;6611;52.604;13.438;2022-08-21T08:15:50;7.30;;;2.27;;
13090;SDS011;6611;52.604;13.438;2022-08-21T08:20:52;3.87;;;1.60;;
13090;SDS011;6611;52.604;13.438;2022-08-21T08:25:55;3.03;;;1.70;;
13090;SDS011;6611;52.604;13.438;2022-08-21T08:30:57;8.40;;;1.83;;
13090;SDS011;6611;52.604;13.438;2022-08-21T08:35:59;3.70;;;1.60;;
13090;SDS011;6611;52.604;13.438;2022-08-21T08:41:14;13.43;;;2.57;;
13090;SDS011;6611;52.604;13.438;2022-08-21T08:46:17;6.30;;;2.00;;
13090;SDS011;6611;52.604;13.438;2022-08-21T08:51:23;4.17;;;1.67;;
13090;SDS011;6611;52.604;13.438;2022-08-21T08:56:30;5.93;;;1.60;;
13090;SDS011;6611;52.604;13.438;2022-08-21T09:01:34;4.60;;;1.93;;
13090;SDS011;6611;52.604;13.438;2022-08-21T09:06:39;3.77;;;1.70;;
13090;SDS011;6611;52.604;13.438;2022-08-21T09:11:52;4.17;;;1.70;;
13090;SDS011;6611;52.604;13.438;2022-08-21T09:17:02;3.63;;;1.50;;
13090;SDS011;6611;52.604;13.438;2022-08-21T09:22:13;4.53;;;1.70;;
13090;SDS011;6611;52.604;13.438;2022-08-21T09:27:21;4.43;;;1.77;;
13090;SDS011;6611;52.604;13.438;2022-08-21T09:32:24;3.27;;;1.60;;
13090;SDS011;6611;52.604;13.438;2022-08-21T09:37:28;4.87;;;1.97;;
13090;SDS011;6611;52.604;13.438;2022-08-21T09:42:33;4.53;;;1.70;;
13090;SDS011;6611;52.604;13.438;2022-08-21T09:47:34;2.90;;;1.60;;
13090;SDS011;6611;52.604;13.438;2022-08-21T09:52:41;4.93;;;1.70;;
13090;SDS011;6611;52.604;13.438;2022-08-21T09:57:46;5.47;;;1.90;;
13090;SDS011;6611;52.604;13.438;2022-08-21T10:02:49;2.57;;;1.43;;
13090;SDS011;6611;52.604;13.438;2022-08-21T10:07:50;3.73;;;2.00;;
13090;SDS011;6611;52.604;13.438;2022-08-21T10:12:55;4.07;;;1.97;;
13090;SDS011;6611;52.604;13.438;2022-08-21T10:18:03;3.57;;;1.70;;
13090;SDS011;6611;52.604;13.438;2022-08-21T10:23:18;4.67;;;1.80;;
13090;SDS011;6611;52.604;13.438;2022-08-21T10:28:31;3.03;;;1.73;;
13090;SDS011;6611;52.604;13.438;2022-08-21T10:33:42;4.07;;;1.70;;
13090;SDS011;6611;52.604;13.438;2022-08-21T10:38:58;3.70;;;1.97;;
13090;SDS011;6611;52.604;13.438;2022-08-21T10:44:09;4.53;;;1.87;;
13090;SDS011;6611;52.604;13.438;2022-08-21T10:49:23;2.80;;;1.60;;
13090;SDS011;6611;52.604;13.438;2022-08-21T10:54:32;2.90;;;1.80;;
13090;SDS011;6611;52.604;13.438;2022-08-21T10:59:43;3.03;;;1.60;;
13090;SDS011;6611;52.604;13.438;2022-08-21T11:04:50;6.40;;;1.90;;
13090;SDS011;6611;52.604;13.438;2022-08-21T11:09:57;2.73;;;1.50;;
13090;SDS011;6611;52.604;13.438;2022-08-21T11:15:07;4.13;;;1.70;;
13090;SDS011;6611;52.604;13.438;2022-08-21T11:20:21;2.23;;;1.20;;
13090;SDS011;6611;52.604;13.438;2022-08-21T11:25:30;4.47;;;1.83;;
13090;SDS011;6611;52.604;13.438;2022-08-21T11:30:39;4.37;;;1.57;;
13090;SDS011;6611;52.604;13.438;2022-08-21T11:35:50;2.53;;;1.30;;
13090;SDS011;6611;52.604;13.438;2022-08-21T11:41:02;3.83;;;1.57;;
13090;SDS011;6611;52.604;13.438;2022-08-21T11:46:19;3.40;;;1.40;;
13090;SDS011;6611;52.604;13.438;2022-08-21T11:51:31;3.20;;;1.50;;
13090;SDS011;6611;52.604;13.438;2022-08-21T11:56:39;2.83;;;1.40;;
13090;SDS011;6611;52.604;13.438;2022-08-21T12:01:48;2.30;;;1.30;;
13090;SDS011;6611;52.604;13.438;2022-08-21T12:06:52;1.40;;;1.17;;
13090;SDS011;6611;52.604;13.438;2022-08-21T12:12:00;2.10;;;1.20;;
13090;SDS011;6611;52.604;13.438;2022-08-21T12:17:06;0.87;;;0.80;;
13090;SDS011;6611;52.604;13.438;2022-08-21T12:22:10;2.70;;;1.00;;
13090;SDS011;6611;52.604;13.438;2022-08-21T12:27:20;1.40;;;1.08;;
13090;SDS011;6611;52.604;13.438;2022-08-21T12:32:28;1.58;;;1.00;;
13090;SDS011;6611;52.604;13.438;2022-08-21T12:37:34;1.73;;;1.00;;
13090;SDS011;6611;52.604;13.438;2022-08-21T12:42:41;1.35;;;1.17;;
13090;SDS011;6611;52.604;13.438;2022-08-21T12:47:54;1.65;;;0.90;;
13090;SDS011;6611;52.604;13.438;2022-08-21T12:52:59;1.47;;;0.90;;
13090;SDS011;6611;52.604;13.438;2022-08-21T12:58:06;1.58;;;0.80;;
13090;SDS011;6611;52.604;13.438;2022-08-21T13:03:18;3.03;;;1.20;;
13090;SDS011;6611;52.604;13.438;2022-08-21T13:08:21;3.60;;;1.23;;
13090;SDS011;6611;52.604;13.438;2022-08-21T13:13:24;2.45;;;1.30;;
13090;SDS011;6611;52.604;13.438;2022-08-21T13:18:30;2.80;;;1.40;;
13090;SDS011;6611;52.604;13.438;2022-08-21T13:23:34;1.95;;;1.00;;
13090;SDS011;6611;52.604;13.438;2022-08-21T13:28:36;3.50;;;1.42;;
13090;SDS011;6611;52.604;13.438;2022-08-21T13:33:39;1.90;;;1.13;;
13090;SDS011;6611;52.604;13.438;2022-08-21T13:38:42;2.50;;;1.10;;
13090;SDS011;6611;52.604;13.438;2022-08-21T13:43:48;1.70;;;1.17;;
13090;SDS011;6611;52.604;13.438;2022-08-21T13:48:52;2.87;;;1.40;;
13090;SDS011;6611;52.604;13.438;2022-08-21T13:53:55;2.00;;;1.10;;
13090;SDS011;6611;52.604;13.438;2022-08-21T13:58:57;2.30;;;1.10;;
13090;SDS011;6611;52.604;13.438;2022-08-21T14:04:02;2.67;;;1.23;;
13090;SDS011;6611;52.604;13.438;2022-08-21T14:09:08;2.23;;;1.30;;
13090;SDS011;6611;52.604;13.438;2022-08-21T14:14:15;4.67;;;1.50;;
13090;SDS011;6611;52.604;13.438;2022-08-21T14:19:25;2.83;;;1.50;;
13090;SDS011;6611;52.604;13.438;2022-08-21T14:24:28;3.33;;;1.57;;
13090;SDS011;6611;52.604;13.438;2022-08-21T14:29:33;2.37;;;1.63;;
13090;SDS011;6611;52.604;13.438;2022-08-21T14:34:37;3.47;;;1.80;;
13090;SDS011;6611;52.604;13.438;2022-08-21T14:39:39;4.17;;;1.43;;
13090;SDS011;6611;52.604;13.438;2022-08-21T14:44:40;3.27;;;1.60;;
13090;SDS011;6611;52.604;13.438;2022-08-21T14:49:44;4.63;;;1.60;;
13090;SDS011;6611;52.604;13.438;2022-08-21T14:54:46;4.60;;;2.10;;
13090;SDS011;6611;52.604;13.438;2022-08-21T14:59:48;4.07;;;1.80;;
13090;SDS011;6611;52.604;13.438;2022-08-21T15:04:50;4.43;;;2.00;;
13090;SDS011;6611;52.604;13.438;2022-08-21T15:09:52;3.73;;;1.80;;
13090;SDS011;6611;52.604;13.438;2022-08-21T15:14:54;4.47;;;1.70;;
13090;SDS011;6611;52.604;13.438;2022-08-21T15:19:56;3.80;;;1.73;;
13090;SDS011;6611;52.604;13.438;2022-08-21T15:24:58;3.90;;;1.80;;
13090;SDS011;6611;52.604;13.438;2022-08-21T15:30:01;4.43;;;1.50;;
13090;SDS011;6611;52.604;13.438;2022-08-21T15:35:04;3.10;;;1.83;;
13090;SDS011;6611;52.604;13.438;2022-08-21T15:40:07;4.20;;;2.00;;
13090;SDS011;6611;52.604;13.438;2022-08-21T15:45:10;2.93;;;1.67;;
13090;SDS011;6611;52.604;13.438;2022-08-21T15:50:14;3.80;;;1.90;;
13090;SDS011;6611;52.604;13.438;2022-08-21T15:55:15;5.10;;;1.70;;
13090;SDS011;6611;52.604;13.438;2022-08-21T16:00:18;3.10;;;1.87;;
13090;SDS011;6611;52.604;13.438;2022-08-21T16:05:24;3.73;;;1.70;;
13090;SDS011;6611;52.604;13.438;2022-08-21T16:10:26;2.20;;;1.63;;
13090;SDS011;6611;52.604;13.438;2022-08-21T16:15:28;4.40;;;1.90;;
13090;SDS011;6611;52.604;13.438;2022-08-21T16:20:31;4.10;;;1.90;;
13090;SDS011;6611;52.604;13.438;2022-08-21T16:25:34;2.50;;;1.57;;
13090;SDS011;6611;52.604;13.438;2022-08-21T16:30:37;2.93;;;1.57;;
13090;SDS011;6611;52.604;13.438;2022-08-21T16:35:40;4.37;;;2.00;;
13090;SDS011;6611;52.604;13.438;2022-08-21T16:40:41;3.60;;;1.70;;
13090;SDS011;6611;52.604;13.438;2022-08-21T16:45:43;2.73;;;1.33;;
13090;SDS011;6611;52.604;13.438;2022-08-21T16:50:46;3.13;;;1.87;;
13090;SDS011;6611;52.604;13.438;2022-08-21T16:55:48;2.40;;;1.80;;
13090;SDS011;6611;52.604;13.438;2022-08-21T17:00:50;5.53;;;1.73;;
13090;SDS011;6611;52.604;13.438;2022-08-21T17:05:54;3.43;;;1.70;;
13090;SDS011;6611;52.604;13.438;2022-08-21T17:10:55;3.43;;;1.47;;
13090;SDS011;6611;52.604;13.438;2022-08-21T17:15:58;4.93;;;1.83;;
13090;SDS011;6611;52.604;13.438;2022-08-21T17:21:01;3.53;;;2.00;;
13090;SDS011;6611;52.604;13.438;2022-08-21T17:26:03;3.83;;;1.93;;
13090;SDS011;6611;52.604;13.438;2022-08-21T17:31:06;3.87;;;1.87;;
13090;SDS011;6611;52.604;13.438;2022-08-21T17:36:11;3.73;;;2.03;;
13090;SDS011;6611;52.604;13.438;2022-08-21T17:41:12;2.53;;;2.00;;
13090;SDS011;6611;52.604;13.438;2022-08-21T17:46:16;3.47;;;2.00;;
13090;SDS011;6611;52.604;13.438;2022-08-21T17:51:21;3.13;;;2.00;;
13090;SDS011;6611;52.604;13.438;2022-08-21T17:56:24;4.03;;;3.10;;
13090;SDS011;6611;52.604;13.438;2022-08-21T18:01:31;4.40;;;2.70;;
13090;SDS011;6611;52.604;13.438;2022-08-21T18:06:36;3.13;;;2.37;;
13090;SDS011;6611;52.604;13.438;2022-08-21T18:11:38;3.83;;;2.00;;
13090;SDS011;6611;52.604;13.438;2022-08-21T18:16:41;4.03;;;2.40;;
13090;SDS011;6611;52.604;13.438;2022-08-21T18:21:44;3.70;;;2.13;;
13090;SDS011;6611;52.604;13.438;2022-08-21T18:26:46;5.00;;;2.83;;
13090;SDS011;6611;52.604;13.438;2022-08-21T18:31:48;3.67;;;2.70;;
13090;SDS011;6611;52.604;13.438;2022-08-21T18:36:52;4.40;;;2.50;;
13090;SDS011;6611;52.604;13.438;2022-08-21T18:41:56;5.97;;;3.03;;
13090;SDS011;6611;52.604;13.438;2022-08-21T18:46:59;8.60;;;3.60;;
13090;SDS011;6611;52.604;13.438;2022-08-21T18:52:06;5.13;;;3.83;;
13090;SDS011;6611;52.604;13.438;2022-08-21T18:57:08;7.80;;;4.93;;
13090;SDS011;6611;52.604;13.438;2022-08-21T19:02:10;10.93;;;8.10;;
13090;SDS011;6611;52.604;13.438;2022-08-21T19:07:13;7.80;;;4.40;;
13090;SDS011;6611;52.604;13.438;2022-08-21T19:12:19;7.43;;;3.90;;
13090;SDS011;6611;52.604;13.438;2022-08-21T19:17:25;7.57;;;3.60;;
13090;SDS011;6611;52.604;13.438;2022-08-21T19:22:28;8.13;;;3.70;;
13090;SDS011;6611;52.604;13.438;2022-08-21T19:27:30;5.33;;;3.43;;
13090;SDS011;6611;52.604;13.438;2022-08-21T19:32:32;9.00;;;4.30;;
13090;SDS011;6611;52.604;13.438;2022-08-21T19:37:36;6.20;;;4.13;;
13090;SDS011;6611;52.604;13.438;2022-08-21T19:42:38;5.40;;;3.43;;
13090;SDS011;6611;52.604;13.438;2022-08-21T19:47:41;7.13;;;3.73;;
13090;SDS011;6611;52.604;13.438;2022-08-21T19:52:47;4.20;;;3.53;;
13090;SDS011;6611;52.604;13.438;2022-08-21T19:57:49;5.57;;;3.87;;
13090;SDS011;6611;52.604;13.438;2022-08-21T20:02:52;4.47;;;3.40;;
13090;SDS011;6611;52.604;13.438;2022-08-21T20:07:55;5.87;;;3.17;;
13090;SDS011;6611;52.604;13.438;2022-08-21T20:12:57;6.43;;;2.87;;
13090;SDS011;6611;52.604;13.438;2022-08-21T20:17:59;6.07;;;2.80;;
13090;SDS011;6611;52.604;13.438;2022-08-21T20:23:02;6.30;;;3.47;;
13090;SDS011;6611;52.604;13.438;2022-08-21T20:28:03;5.43;;;3.03;;
13090;SDS011;6611;52.604;13.438;2022-08-21T20:33:06;4.27;;;3.07;;
13090;SDS011;6611;52.604;13.438;2022-08-21T20:38:09;5.13;;;3.90;;
13090;SDS011;6611;52.604;13.438;2022-08-21T20:43:10;4.53;;;4.10;;
13090;SDS011;6611;52.604;13.438;2022-08-21T20:48:13;7.80;;;4.60;;
13090;SDS011;6611;52.604;13.438;2022-08-21T20:53:22;6.33;;;4.73;;
13090;SDS011;6611;52.604;13.438;2022-08-21T20:58:31;5.53;;;4.47;;
13090;SDS011;6611;52.604;13.438;2022-08-21T21:03:36;7.27;;;5.07;;
13090;SDS011;6611;52.604;13.438;2022-08-21T21:08:44;5.33;;;4.30;;
13090;SDS011;6611;52.604;13.438;2022-08-21T21:13:50;6.60;;;5.20;;
13090;SDS011;6611;52.604;13.438;2022-08-21T21:18:55;7.00;;;4.90;;
13090;SDS011;6611;52.604;13.438;2022-08-21T21:24:03;5.13;;;4.40;;
13090;SDS011;6611;52.604;13.438;2022-08-21T21:29:09;10.30;;;4.80;;
13090;SDS011;6611;52.604;13.438;2022-08-21T21:34:14;5.30;;;4.80;;
13090;SDS011;6611;52.604;13.438;2022-08-21T21:39:19;7.90;;;4.93;;
13090;SDS011;6611;52.604;13.438;2022-08-21T21:44:37;4.93;;;4.10;;
13090;SDS011;6611;52.604;13.438;2022-08-21T21:49:53;6.30;;;4.77;;
13090;SDS011;6611;52.604;13.438;2022-08-21T21:55:07;5.87;;;4.83;;
13090;SDS011;6611;52.604;13.438;2022-08-21T22:00:18;5.37;;;4.13;;
13090;SDS011;6611;52.604;13.438;2022-08-21T22:05:27;5.80;;;4.50;;
13090;SDS011;6611;52.604;13.438;2022-08-21T22:10:44;6.63;;;4.13;;
13090;SDS011;6611;52.604;13.438;2022-08-21T22:15:50;5.00;;;3.67;;
13090;SDS011;6611;52.604;13.438;2022-08-21T22:20:52;7.07;;;4.20;;
13090;SDS011;6611;52.604;13.438;2022-08-21T22:26:01;5.07;;;4.03;;
13090;SDS011;6611;52.604;13.438;2022-08-21T22:31:13;5.07;;;3.40;;
13090;SDS011;6611;52.604;13.438;2022-08-21T22:36:20;3.60;;;3.30;;
13090;SDS011;6611;52.604;13.438;2022-08-21T22:41:24;5.90;;;3.57;;
13090;SDS011;6611;52.604;13.438;2022-08-21T22:46:29;3.40;;;3.10;;
13090;SDS011;6611;52.604;13.438;2022-08-21T22:51:35;3.60;;;3.20;;
13090;SDS011;6611;52.604;13.438;2022-08-21T22:56:40;3.93;;;3.33;;
13090;SDS011;6611;52.604;13.438;2022-08-21T23:01:46;4.03;;;3.17;;
13090;SDS011;6611;52.604;13.438;2022-08-21T23:06:57;5.60;;;3.53;;
13090;SDS011;6611;52.604;13.438;2022-08-21T23:12:01;7.80;;;4.07;;
13090;SDS011;6611;52.604;13.438;2022-08-21T23:17:07;7.67;;;3.53;;
13090;SDS011;6611;52.604;13.438;2022-08-21T23:22:21;5.27;;;3.33;;
13090;SDS011;6611;52.604;13.438;2022-08-21T23:27:35;4.03;;;3.60;;
13090;SDS011;6611;52.604;13.438;2022-08-21T23:32:58;4.20;;;3.33;;
13090;SDS011;6611;52.604;13.438;2022-08-21T23:38:12;4.50;;;3.00;;
13090;SDS011;6611;52.604;13.438;2022-08-21T23:43:32;5.17;;;3.43;;
13090;SDS011;6611;52.604;13.438;2022-08-21T23:48:45;6.57;;;3.60;;
13090;SDS011;6611;52.604;13.438;2022-08-21T23:53:57;6.10;;;3.67;;
13090;SDS011;6611;52.604;13.438;2022-08-21T23:59:10;3.37;;;3.07;;
